Terminal Aerodrome Forecast
Issued by NWS

Home | Current Version | Previous Version | Text Only | Print | Product List | Glossary On
Versions: 1 2 3 4 5 6 7 8 9 10 11 12
786
FTUS44 KLIX 241722
TAFMSY
TAF
KMSY 241722Z 2418/2518 17008KT P6SM BKN035
     FM250400 15005KT P6SM SCT250
     FM251600 15010KT P6SM BKN050=

USA.gov is the U.S. government's official web portal to all federal, state and local government web resources and services.